sensor_id;sensor_type;location;lat;lon;timestamp;P1;durP1;ratioP1;P2;durP2;ratioP2
18190;SDS011;47004;51.366;12.348;2024-02-16T00:00:20;5.90;;;3.20;;
18190;SDS011;47004;51.366;12.348;2024-02-16T00:02:25;6.70;;;3.43;;
18190;SDS011;47004;51.366;12.348;2024-02-16T00:04:27;6.23;;;3.33;;
18190;SDS011;47004;51.366;12.348;2024-02-16T00:06:28;5.50;;;3.37;;
18190;SDS011;47004;51.366;12.348;2024-02-16T00:08:31;6.60;;;3.30;;
18190;SDS011;47004;51.366;12.348;2024-02-16T00:10:34;7.00;;;3.37;;
18190;SDS011;47004;51.366;12.348;2024-02-16T00:12:36;6.27;;;3.27;;
18190;SDS011;47004;51.366;12.348;2024-02-16T00:14:41;7.70;;;3.17;;
18190;SDS011;47004;51.366;12.348;2024-02-16T00:16:43;5.77;;;2.97;;
18190;SDS011;47004;51.366;12.348;2024-02-16T00:18:45;6.40;;;3.37;;
18190;SDS011;47004;51.366;12.348;2024-02-16T00:20:47;4.30;;;3.00;;
18190;SDS011;47004;51.366;12.348;2024-02-16T00:22:49;6.07;;;3.10;;
18190;SDS011;47004;51.366;12.348;2024-02-16T00:24:51;9.57;;;3.37;;
18190;SDS011;47004;51.366;12.348;2024-02-16T00:26:53;6.10;;;3.80;;
18190;SDS011;47004;51.366;12.348;2024-02-16T00:28:54;6.03;;;3.47;;
18190;SDS011;47004;51.366;12.348;2024-02-16T00:30:57;6.37;;;3.20;;
18190;SDS011;47004;51.366;12.348;2024-02-16T00:32:58;8.93;;;3.30;;
18190;SDS011;47004;51.366;12.348;2024-02-16T00:35:01;7.63;;;3.50;;
18190;SDS011;47004;51.366;12.348;2024-02-16T00:37:03;6.00;;;3.37;;
18190;SDS011;47004;51.366;12.348;2024-02-16T00:39:09;6.43;;;3.53;;
18190;SDS011;47004;51.366;12.348;2024-02-16T00:41:16;6.63;;;3.20;;
18190;SDS011;47004;51.366;12.348;2024-02-16T00:43:19;5.47;;;3.20;;
18190;SDS011;47004;51.366;12.348;2024-02-16T00:45:21;7.43;;;3.40;;
18190;SDS011;47004;51.366;12.348;2024-02-16T00:47:25;4.27;;;3.00;;
18190;SDS011;47004;51.366;12.348;2024-02-16T00:49:27;4.90;;;3.40;;
18190;SDS011;47004;51.366;12.348;2024-02-16T00:51:29;5.47;;;3.40;;
18190;SDS011;47004;51.366;12.348;2024-02-16T00:53:31;4.80;;;3.07;;
18190;SDS011;47004;51.366;12.348;2024-02-16T00:55:32;5.80;;;3.43;;
18190;SDS011;47004;51.366;12.348;2024-02-16T00:57:34;4.70;;;3.00;;
18190;SDS011;47004;51.366;12.348;2024-02-16T00:59:36;5.10;;;3.10;;
18190;SDS011;47004;51.366;12.348;2024-02-16T01:01:38;5.97;;;2.97;;
18190;SDS011;47004;51.366;12.348;2024-02-16T01:03:41;5.23;;;3.20;;
18190;SDS011;47004;51.366;12.348;2024-02-16T01:05:43;6.17;;;3.20;;
18190;SDS011;47004;51.366;12.348;2024-02-16T01:07:45;5.37;;;3.37;;
18190;SDS011;47004;51.366;12.348;2024-02-16T01:09:46;5.33;;;3.13;;
18190;SDS011;47004;51.366;12.348;2024-02-16T01:11:48;6.27;;;3.40;;
18190;SDS011;47004;51.366;12.348;2024-02-16T01:13:50;5.03;;;3.40;;
18190;SDS011;47004;51.366;12.348;2024-02-16T01:15:53;7.43;;;3.97;;
18190;SDS011;47004;51.366;12.348;2024-02-16T01:17:55;6.57;;;3.10;;
18190;SDS011;47004;51.366;12.348;2024-02-16T01:19:58;6.07;;;3.53;;
18190;SDS011;47004;51.366;12.348;2024-02-16T01:22:04;6.17;;;3.27;;
18190;SDS011;47004;51.366;12.348;2024-02-16T01:24:06;4.70;;;2.90;;
18190;SDS011;47004;51.366;12.348;2024-02-16T01:26:09;6.80;;;3.47;;
18190;SDS011;47004;51.366;12.348;2024-02-16T01:28:09;6.27;;;3.10;;
18190;SDS011;47004;51.366;12.348;2024-02-16T01:30:12;5.37;;;3.10;;
18190;SDS011;47004;51.366;12.348;2024-02-16T01:32:15;5.43;;;3.20;;
18190;SDS011;47004;51.366;12.348;2024-02-16T01:34:17;4.10;;;3.10;;
18190;SDS011;47004;51.366;12.348;2024-02-16T01:36:20;5.40;;;2.90;;
18190;SDS011;47004;51.366;12.348;2024-02-16T01:38:22;6.87;;;2.90;;
18190;SDS011;47004;51.366;12.348;2024-02-16T01:40:24;5.23;;;3.03;;
18190;SDS011;47004;51.366;12.348;2024-02-16T01:42:27;5.93;;;3.40;;
18190;SDS011;47004;51.366;12.348;2024-02-16T01:44:28;9.93;;;3.67;;
18190;SDS011;47004;51.366;12.348;2024-02-16T01:46:30;6.37;;;3.27;;
18190;SDS011;47004;51.366;12.348;2024-02-16T01:48:33;5.47;;;3.60;;
18190;SDS011;47004;51.366;12.348;2024-02-16T01:50:35;4.87;;;2.90;;
18190;SDS011;47004;51.366;12.348;2024-02-16T01:52:38;6.73;;;3.40;;
18190;SDS011;47004;51.366;12.348;2024-02-16T01:54:40;4.53;;;3.13;;
18190;SDS011;47004;51.366;12.348;2024-02-16T01:56:41;6.87;;;3.03;;
18190;SDS011;47004;51.366;12.348;2024-02-16T01:58:43;5.90;;;3.40;;
18190;SDS011;47004;51.366;12.348;2024-02-16T02:00:44;4.77;;;3.23;;
18190;SDS011;47004;51.366;12.348;2024-02-16T02:02:46;4.43;;;2.73;;
18190;SDS011;47004;51.366;12.348;2024-02-16T02:04:54;6.47;;;3.57;;
18190;SDS011;47004;51.366;12.348;2024-02-16T02:06:56;5.73;;;2.80;;
18190;SDS011;47004;51.366;12.348;2024-02-16T02:08:59;3.63;;;2.83;;
18190;SDS011;47004;51.366;12.348;2024-02-16T02:11:01;4.57;;;3.00;;
18190;SDS011;47004;51.366;12.348;2024-02-16T02:13:03;5.60;;;2.97;;
18190;SDS011;47004;51.366;12.348;2024-02-16T02:15:05;8.93;;;3.00;;
18190;SDS011;47004;51.366;12.348;2024-02-16T02:17:08;4.17;;;3.07;;
18190;SDS011;47004;51.366;12.348;2024-02-16T02:19:10;7.40;;;3.10;;
18190;SDS011;47004;51.366;12.348;2024-02-16T02:21:12;8.50;;;3.33;;
18190;SDS011;47004;51.366;12.348;2024-02-16T02:23:19;4.13;;;2.50;;
18190;SDS011;47004;51.366;12.348;2024-02-16T02:25:21;4.80;;;3.07;;
18190;SDS011;47004;51.366;12.348;2024-02-16T02:27:23;4.60;;;2.87;;
18190;SDS011;47004;51.366;12.348;2024-02-16T02:29:25;5.70;;;2.87;;
18190;SDS011;47004;51.366;12.348;2024-02-16T02:31:27;5.07;;;2.90;;
18190;SDS011;47004;51.366;12.348;2024-02-16T02:33:29;4.27;;;2.70;;
18190;SDS011;47004;51.366;12.348;2024-02-16T02:35:31;3.60;;;3.00;;
18190;SDS011;47004;51.366;12.348;2024-02-16T02:37:33;6.37;;;2.80;;
18190;SDS011;47004;51.366;12.348;2024-02-16T02:39:36;4.00;;;2.53;;
18190;SDS011;47004;51.366;12.348;2024-02-16T02:41:38;4.70;;;2.37;;
18190;SDS011;47004;51.366;12.348;2024-02-16T02:43:40;5.70;;;2.63;;
18190;SDS011;47004;51.366;12.348;2024-02-16T02:45:43;6.77;;;2.77;;
18190;SDS011;47004;51.366;12.348;2024-02-16T02:47:45;4.10;;;2.77;;
18190;SDS011;47004;51.366;12.348;2024-02-16T02:49:46;5.53;;;2.60;;
18190;SDS011;47004;51.366;12.348;2024-02-16T02:51:48;6.50;;;2.63;;
18190;SDS011;47004;51.366;12.348;2024-02-16T02:53:49;3.87;;;2.40;;
18190;SDS011;47004;51.366;12.348;2024-02-16T02:55:52;6.23;;;3.17;;
18190;SDS011;47004;51.366;12.348;2024-02-16T02:57:53;6.33;;;3.60;;
18190;SDS011;47004;51.366;12.348;2024-02-16T03:00:00;4.50;;;2.97;;
18190;SDS011;47004;51.366;12.348;2024-02-16T03:02:06;9.17;;;2.93;;
18190;SDS011;47004;51.366;12.348;2024-02-16T03:04:08;4.57;;;2.60;;
18190;SDS011;47004;51.366;12.348;2024-02-16T03:06:10;5.03;;;2.60;;
18190;SDS011;47004;51.366;12.348;2024-02-16T03:08:12;4.77;;;2.67;;
18190;SDS011;47004;51.366;12.348;2024-02-16T03:10:14;6.33;;;3.07;;
18190;SDS011;47004;51.366;12.348;2024-02-16T03:12:22;5.10;;;2.60;;
18190;SDS011;47004;51.366;12.348;2024-02-16T03:14:24;7.10;;;3.10;;
18190;SDS011;47004;51.366;12.348;2024-02-16T03:16:25;4.97;;;2.93;;
18190;SDS011;47004;51.366;12.348;2024-02-16T03:18:28;5.43;;;2.80;;
18190;SDS011;47004;51.366;12.348;2024-02-16T03:20:31;4.67;;;2.60;;
18190;SDS011;47004;51.366;12.348;2024-02-16T03:22:33;3.80;;;2.43;;
18190;SDS011;47004;51.366;12.348;2024-02-16T03:24:35;4.73;;;2.67;;
18190;SDS011;47004;51.366;12.348;2024-02-16T03:26:35;4.10;;;2.57;;
18190;SDS011;47004;51.366;12.348;2024-02-16T03:28:39;5.80;;;2.47;;
18190;SDS011;47004;51.366;12.348;2024-02-16T03:30:41;5.30;;;2.60;;
18190;SDS011;47004;51.366;12.348;2024-02-16T03:32:47;6.33;;;2.43;;
18190;SDS011;47004;51.366;12.348;2024-02-16T03:34:49;6.13;;;3.13;;
18190;SDS011;47004;51.366;12.348;2024-02-16T03:36:51;8.73;;;3.27;;
18190;SDS011;47004;51.366;12.348;2024-02-16T03:38:53;5.63;;;2.87;;
18190;SDS011;47004;51.366;12.348;2024-02-16T03:40:55;6.20;;;2.57;;
18190;SDS011;47004;51.366;12.348;2024-02-16T03:42:56;3.13;;;2.00;;
18190;SDS011;47004;51.366;12.348;2024-02-16T03:44:59;5.83;;;2.57;;
18190;SDS011;47004;51.366;12.348;2024-02-16T03:47:01;5.27;;;2.33;;
18190;SDS011;47004;51.366;12.348;2024-02-16T03:49:03;4.70;;;2.30;;
18190;SDS011;47004;51.366;12.348;2024-02-16T03:51:05;5.93;;;2.60;;
18190;SDS011;47004;51.366;12.348;2024-02-16T03:53:07;4.27;;;2.47;;
18190;SDS011;47004;51.366;12.348;2024-02-16T03:55:09;7.03;;;2.80;;
18190;SDS011;47004;51.366;12.348;2024-02-16T03:57:10;6.43;;;2.77;;
18190;SDS011;47004;51.366;12.348;2024-02-16T03:59:12;6.90;;;2.90;;
18190;SDS011;47004;51.366;12.348;2024-02-16T04:01:15;4.83;;;2.77;;
18190;SDS011;47004;51.366;12.348;2024-02-16T04:03:17;6.53;;;2.63;;
18190;SDS011;47004;51.366;12.348;2024-02-16T04:05:19;7.30;;;2.90;;
18190;SDS011;47004;51.366;12.348;2024-02-16T04:07:21;5.33;;;2.50;;
18190;SDS011;47004;51.366;12.348;2024-02-16T04:09:23;5.47;;;2.47;;
18190;SDS011;47004;51.366;12.348;2024-02-16T04:11:25;5.07;;;2.47;;
18190;SDS011;47004;51.366;12.348;2024-02-16T04:13:29;5.67;;;2.40;;
18190;SDS011;47004;51.366;12.348;2024-02-16T04:15:32;4.60;;;2.47;;
18190;SDS011;47004;51.366;12.348;2024-02-16T04:17:35;4.37;;;2.00;;
18190;SDS011;47004;51.366;12.348;2024-02-16T04:19:37;5.47;;;2.40;;
18190;SDS011;47004;51.366;12.348;2024-02-16T04:21:39;5.67;;;2.67;;
18190;SDS011;47004;51.366;12.348;2024-02-16T04:23:41;5.13;;;2.27;;
18190;SDS011;47004;51.366;12.348;2024-02-16T04:25:43;5.30;;;2.20;;
18190;SDS011;47004;51.366;12.348;2024-02-16T04:27:44;4.87;;;2.40;;
18190;SDS011;47004;51.366;12.348;2024-02-16T04:29:46;3.43;;;2.07;;
18190;SDS011;47004;51.366;12.348;2024-02-16T04:31:48;4.97;;;2.13;;
18190;SDS011;47004;51.366;12.348;2024-02-16T04:33:51;5.33;;;2.20;;
18190;SDS011;47004;51.366;12.348;2024-02-16T04:35:54;5.60;;;2.33;;
18190;SDS011;47004;51.366;12.348;2024-02-16T04:37:58;4.83;;;2.40;;
18190;SDS011;47004;51.366;12.348;2024-02-16T04:40:00;4.83;;;2.40;;
18190;SDS011;47004;51.366;12.348;2024-02-16T04:42:01;4.50;;;2.40;;
18190;SDS011;47004;51.366;12.348;2024-02-16T04:44:03;4.47;;;2.70;;
18190;SDS011;47004;51.366;12.348;2024-02-16T04:46:05;7.07;;;2.50;;
18190;SDS011;47004;51.366;12.348;2024-02-16T04:48:07;3.60;;;2.40;;
18190;SDS011;47004;51.366;12.348;2024-02-16T04:50:11;4.07;;;2.33;;
18190;SDS011;47004;51.366;12.348;2024-02-16T04:52:14;5.23;;;2.10;;
18190;SDS011;47004;51.366;12.348;2024-02-16T04:54:14;4.03;;;2.23;;
18190;SDS011;47004;51.366;12.348;2024-02-16T04:56:16;5.07;;;2.23;;
18190;SDS011;47004;51.366;12.348;2024-02-16T04:58:18;5.40;;;2.27;;
18190;SDS011;47004;51.366;12.348;2024-02-16T05:00:20;4.77;;;2.50;;
18190;SDS011;47004;51.366;12.348;2024-02-16T05:02:22;3.57;;;2.17;;
18190;SDS011;47004;51.366;12.348;2024-02-16T05:04:24;4.00;;;2.27;;
18190;SDS011;47004;51.366;12.348;2024-02-16T05:06:27;9.03;;;2.70;;
18190;SDS011;47004;51.366;12.348;2024-02-16T05:08:29;3.10;;;2.20;;
18190;SDS011;47004;51.366;12.348;2024-02-16T05:10:31;6.37;;;2.50;;
18190;SDS011;47004;51.366;12.348;2024-02-16T05:12:33;5.37;;;2.60;;
18190;SDS011;47004;51.366;12.348;2024-02-16T05:14:35;4.43;;;2.37;;
18190;SDS011;47004;51.366;12.348;2024-02-16T05:16:37;5.33;;;2.30;;
18190;SDS011;47004;51.366;12.348;2024-02-16T05:18:43;3.73;;;2.40;;
18190;SDS011;47004;51.366;12.348;2024-02-16T05:20:45;5.23;;;3.10;;
18190;SDS011;47004;51.366;12.348;2024-02-16T05:22:48;6.93;;;3.03;;
18190;SDS011;47004;51.366;12.348;2024-02-16T05:24:51;3.80;;;2.40;;
18190;SDS011;47004;51.366;12.348;2024-02-16T05:26:56;6.07;;;2.40;;
18190;SDS011;47004;51.366;12.348;2024-02-16T05:28:58;5.40;;;2.40;;
18190;SDS011;47004;51.366;12.348;2024-02-16T05:31:02;3.43;;;2.50;;
18190;SDS011;47004;51.366;12.348;2024-02-16T05:33:14;4.37;;;2.30;;
18190;SDS011;47004;51.366;12.348;2024-02-16T05:35:16;4.93;;;2.40;;
18190;SDS011;47004;51.366;12.348;2024-02-16T05:37:18;6.23;;;2.50;;
18190;SDS011;47004;51.366;12.348;2024-02-16T05:39:23;2.73;;;2.10;;
18190;SDS011;47004;51.366;12.348;2024-02-16T05:41:31;4.47;;;2.60;;
18190;SDS011;47004;51.366;12.348;2024-02-16T05:43:33;3.50;;;2.10;;
18190;SDS011;47004;51.366;12.348;2024-02-16T05:45:35;6.73;;;2.27;;
18190;SDS011;47004;51.366;12.348;2024-02-16T05:47:37;3.40;;;2.17;;
18190;SDS011;47004;51.366;12.348;2024-02-16T05:49:39;4.17;;;2.40;;
18190;SDS011;47004;51.366;12.348;2024-02-16T05:51:41;4.73;;;2.67;;
18190;SDS011;47004;51.366;12.348;2024-02-16T05:54:00;4.40;;;2.30;;
18190;SDS011;47004;51.366;12.348;2024-02-16T05:56:04;3.07;;;2.23;;
18190;SDS011;47004;51.366;12.348;2024-02-16T05:58:06;3.70;;;2.37;;
18190;SDS011;47004;51.366;12.348;2024-02-16T06:00:08;5.30;;;2.33;;
18190;SDS011;47004;51.366;12.348;2024-02-16T06:02:10;4.97;;;2.40;;
18190;SDS011;47004;51.366;12.348;2024-02-16T06:04:12;4.90;;;2.53;;
18190;SDS011;47004;51.366;12.348;2024-02-16T06:06:13;4.80;;;2.47;;
18190;SDS011;47004;51.366;12.348;2024-02-16T06:08:15;3.73;;;2.20;;
18190;SDS011;47004;51.366;12.348;2024-02-16T06:10:17;4.57;;;2.47;;
18190;SDS011;47004;51.366;12.348;2024-02-16T06:12:24;4.50;;;2.40;;
18190;SDS011;47004;51.366;12.348;2024-02-16T06:14:26;2.97;;;2.10;;
18190;SDS011;47004;51.366;12.348;2024-02-16T06:16:27;5.43;;;2.60;;
18190;SDS011;47004;51.366;12.348;2024-02-16T06:18:28;4.23;;;2.20;;
18190;SDS011;47004;51.366;12.348;2024-02-16T06:20:30;3.17;;;2.20;;
18190;SDS011;47004;51.366;12.348;2024-02-16T06:22:32;5.63;;;2.20;;
18190;SDS011;47004;51.366;12.348;2024-02-16T06:24:33;3.03;;;2.10;;
18190;SDS011;47004;51.366;12.348;2024-02-16T06:26:35;5.00;;;2.40;;
18190;SDS011;47004;51.366;12.348;2024-02-16T06:28:39;4.00;;;2.37;;
18190;SDS011;47004;51.366;12.348;2024-02-16T06:30:41;6.97;;;2.43;;
18190;SDS011;47004;51.366;12.348;2024-02-16T06:32:43;3.23;;;2.10;;
18190;SDS011;47004;51.366;12.348;2024-02-16T06:34:45;6.77;;;2.10;;
18190;SDS011;47004;51.366;12.348;2024-02-16T06:36:47;7.70;;;2.80;;
18190;SDS011;47004;51.366;12.348;2024-02-16T06:38:50;4.00;;;2.40;;
18190;SDS011;47004;51.366;12.348;2024-02-16T06:40:52;8.80;;;3.20;;
18190;SDS011;47004;51.366;12.348;2024-02-16T06:42:53;3.97;;;2.40;;
18190;SDS011;47004;51.366;12.348;2024-02-16T06:44:57;4.60;;;2.10;;
18190;SDS011;47004;51.366;12.348;2024-02-16T06:46:59;4.03;;;2.50;;
18190;SDS011;47004;51.366;12.348;2024-02-16T06:49:01;7.50;;;2.40;;
18190;SDS011;47004;51.366;12.348;2024-02-16T06:51:03;5.80;;;2.43;;
18190;SDS011;47004;51.366;12.348;2024-02-16T06:53:05;4.67;;;2.33;;
18190;SDS011;47004;51.366;12.348;2024-02-16T06:55:07;2.83;;;2.30;;
18190;SDS011;47004;51.366;12.348;2024-02-16T06:57:09;4.73;;;2.60;;
18190;SDS011;47004;51.366;12.348;2024-02-16T06:59:11;4.00;;;2.47;;
18190;SDS011;47004;51.366;12.348;2024-02-16T07:01:14;6.17;;;2.50;;
18190;SDS011;47004;51.366;12.348;2024-02-16T07:03:16;5.23;;;2.43;;
18190;SDS011;47004;51.366;12.348;2024-02-16T07:05:19;6.77;;;2.77;;
18190;SDS011;47004;51.366;12.348;2024-02-16T07:07:21;5.33;;;2.30;;
18190;SDS011;47004;51.366;12.348;2024-02-16T07:09:23;3.73;;;2.37;;
18190;SDS011;47004;51.366;12.348;2024-02-16T07:11:25;3.57;;;2.10;;
18190;SDS011;47004;51.366;12.348;2024-02-16T07:13:29;3.87;;;1.97;;
18190;SDS011;47004;51.366;12.348;2024-02-16T07:15:31;6.43;;;2.77;;
18190;SDS011;47004;51.366;12.348;2024-02-16T07:17:34;5.20;;;2.57;;
18190;SDS011;47004;51.366;12.348;2024-02-16T07:19:36;9.37;;;3.70;;
18190;SDS011;47004;51.366;12.348;2024-02-16T07:21:38;9.27;;;3.60;;
18190;SDS011;47004;51.366;12.348;2024-02-16T07:23:41;6.93;;;2.90;;
18190;SDS011;47004;51.366;12.348;2024-02-16T07:25:43;4.67;;;2.73;;
18190;SDS011;47004;51.366;12.348;2024-02-16T07:27:46;5.40;;;2.33;;
18190;SDS011;47004;51.366;12.348;2024-02-16T07:29:47;3.17;;;2.27;;
18190;SDS011;47004;51.366;12.348;2024-02-16T07:31:48;4.77;;;2.50;;
18190;SDS011;47004;51.366;12.348;2024-02-16T07:33:53;3.70;;;2.17;;
18190;SDS011;47004;51.366;12.348;2024-02-16T07:35:55;4.87;;;2.40;;
18190;SDS011;47004;51.366;12.348;2024-02-16T07:37:57;4.73;;;2.23;;
18190;SDS011;47004;51.366;12.348;2024-02-16T07:39:59;4.07;;;2.23;;
18190;SDS011;47004;51.366;12.348;2024-02-16T07:42:01;5.63;;;2.40;;
18190;SDS011;47004;51.366;12.348;2024-02-16T07:44:03;4.70;;;2.20;;
18190;SDS011;47004;51.366;12.348;2024-02-16T07:46:06;5.93;;;2.60;;
18190;SDS011;47004;51.366;12.348;2024-02-16T07:48:08;3.80;;;2.40;;
18190;SDS011;47004;51.366;12.348;2024-02-16T07:50:11;3.50;;;2.20;;
18190;SDS011;47004;51.366;12.348;2024-02-16T07:52:14;3.97;;;2.10;;
18190;SDS011;47004;51.366;12.348;2024-02-16T07:54:15;7.80;;;3.20;;
18190;SDS011;47004;51.366;12.348;2024-02-16T07:56:17;11.63;;;4.13;;
18190;SDS011;47004;51.366;12.348;2024-02-16T07:58:21;6.23;;;2.53;;
18190;SDS011;47004;51.366;12.348;2024-02-16T08:00:24;3.07;;;1.73;;
18190;SDS011;47004;51.366;12.348;2024-02-16T08:02:26;8.80;;;3.43;;
18190;SDS011;47004;51.366;12.348;2024-02-16T08:04:30;4.13;;;1.80;;
18190;SDS011;47004;51.366;12.348;2024-02-16T08:06:34;3.07;;;2.17;;
18190;SDS011;47004;51.366;12.348;2024-02-16T08:08:36;3.77;;;2.13;;
18190;SDS011;47004;51.366;12.348;2024-02-16T08:10:37;4.33;;;2.30;;
18190;SDS011;47004;51.366;12.348;2024-02-16T08:12:39;4.37;;;2.00;;
18190;SDS011;47004;51.366;12.348;2024-02-16T08:14:41;6.13;;;2.77;;
18190;SDS011;47004;51.366;12.348;2024-02-16T08:16:45;7.37;;;3.10;;
18190;SDS011;47004;51.366;12.348;2024-02-16T08:18:46;3.70;;;2.20;;
18190;SDS011;47004;51.366;12.348;2024-02-16T08:20:51;3.27;;;2.10;;
18190;SDS011;47004;51.366;12.348;2024-02-16T08:22:55;5.97;;;2.53;;
18190;SDS011;47004;51.366;12.348;2024-02-16T08:24:59;3.50;;;2.10;;
18190;SDS011;47004;51.366;12.348;2024-02-16T08:27:03;3.60;;;2.00;;
18190;SDS011;47004;51.366;12.348;2024-02-16T08:29:05;4.30;;;2.20;;
18190;SDS011;47004;51.366;12.348;2024-02-16T08:31:06;4.47;;;1.90;;
18190;SDS011;47004;51.366;12.348;2024-02-16T08:33:10;3.73;;;1.80;;
18190;SDS011;47004;51.366;12.348;2024-02-16T08:35:13;4.73;;;2.00;;
18190;SDS011;47004;51.366;12.348;2024-02-16T08:37:17;4.13;;;2.07;;
18190;SDS011;47004;51.366;12.348;2024-02-16T08:39:20;5.23;;;2.10;;
18190;SDS011;47004;51.366;12.348;2024-02-16T08:41:22;2.83;;;1.80;;
18190;SDS011;47004;51.366;12.348;2024-02-16T08:43:24;3.97;;;1.67;;
18190;SDS011;47004;51.366;12.348;2024-02-16T08:45:27;3.97;;;1.83;;
18190;SDS011;47004;51.366;12.348;2024-02-16T08:47:29;5.17;;;1.60;;
18190;SDS011;47004;51.366;12.348;2024-02-16T08:49:31;2.30;;;1.50;;
18190;SDS011;47004;51.366;12.348;2024-02-16T08:51:32;2.30;;;1.60;;
18190;SDS011;47004;51.366;12.348;2024-02-16T08:53:34;1.97;;;1.47;;
18190;SDS011;47004;51.366;12.348;2024-02-16T08:55:38;3.13;;;1.60;;
18190;SDS011;47004;51.366;12.348;2024-02-16T08:57:40;2.70;;;1.63;;
18190;SDS011;47004;51.366;12.348;2024-02-16T08:59:45;3.20;;;1.70;;
18190;SDS011;47004;51.366;12.348;2024-02-16T09:01:47;3.23;;;1.60;;
18190;SDS011;47004;51.366;12.348;2024-02-16T09:03:48;2.73;;;1.33;;
18190;SDS011;47004;51.366;12.348;2024-02-16T09:05:50;4.00;;;1.80;;
18190;SDS011;47004;51.366;12.348;2024-02-16T09:07:52;5.27;;;1.63;;
18190;SDS011;47004;51.366;12.348;2024-02-16T09:09:54;3.43;;;1.40;;
18190;SDS011;47004;51.366;12.348;2024-02-16T09:11:58;2.80;;;1.40;;
18190;SDS011;47004;51.366;12.348;2024-02-16T09:14:00;2.10;;;1.50;;
18190;SDS011;47004;51.366;12.348;2024-02-16T09:16:02;1.70;;;1.20;;
18190;SDS011;47004;51.366;12.348;2024-02-16T09:18:04;3.27;;;1.50;;
18190;SDS011;47004;51.366;12.348;2024-02-16T09:20:08;4.07;;;2.13;;
18190;SDS011;47004;51.366;12.348;2024-02-16T09:22:11;4.00;;;2.07;;
18190;SDS011;47004;51.366;12.348;2024-02-16T09:24:13;3.07;;;1.80;;
18190;SDS011;47004;51.366;12.348;2024-02-16T09:26:18;3.60;;;1.53;;
18190;SDS011;47004;51.366;12.348;2024-02-16T09:28:20;4.43;;;1.60;;
18190;SDS011;47004;51.366;12.348;2024-02-16T09:30:22;2.30;;;1.30;;
18190;SDS011;47004;51.366;12.348;2024-02-16T09:32:24;3.00;;;1.47;;
18190;SDS011;47004;51.366;12.348;2024-02-16T09:34:25;2.97;;;1.37;;
18190;SDS011;47004;51.366;12.348;2024-02-16T09:36:27;2.37;;;1.60;;
18190;SDS011;47004;51.366;12.348;2024-02-16T09:38:29;1.67;;;1.27;;
18190;SDS011;47004;51.366;12.348;2024-02-16T09:40:31;4.30;;;1.40;;
18190;SDS011;47004;51.366;12.348;2024-02-16T09:42:33;2.23;;;1.27;;
18190;SDS011;47004;51.366;12.348;2024-02-16T09:44:40;2.10;;;1.40;;
18190;SDS011;47004;51.366;12.348;2024-02-16T09:46:44;2.53;;;1.37;;
18190;SDS011;47004;51.366;12.348;2024-02-16T09:48:45;2.30;;;1.50;;
18190;SDS011;47004;51.366;12.348;2024-02-16T09:50:53;2.13;;;1.40;;
18190;SDS011;47004;51.366;12.348;2024-02-16T09:52:56;2.93;;;1.70;;
18190;SDS011;47004;51.366;12.348;2024-02-16T09:54:58;2.57;;;1.40;;
18190;SDS011;47004;51.366;12.348;2024-02-16T09:56:59;2.40;;;1.50;;
18190;SDS011;47004;51.366;12.348;2024-02-16T09:59:01;3.00;;;1.40;;
18190;SDS011;47004;51.366;12.348;2024-02-16T10:01:05;1.97;;;1.43;;
18190;SDS011;47004;51.366;12.348;2024-02-16T10:03:21;4.70;;;1.67;;
18190;SDS011;47004;51.366;12.348;2024-02-16T10:05:23;2.50;;;1.43;;
18190;SDS011;47004;51.366;12.348;2024-02-16T10:07:30;2.47;;;1.37;;
18190;SDS011;47004;51.366;12.348;2024-02-16T10:09:32;2.70;;;1.70;;
18190;SDS011;47004;51.366;12.348;2024-02-16T10:11:34;4.03;;;1.80;;
18190;SDS011;47004;51.366;12.348;2024-02-16T10:13:39;2.00;;;1.37;;
18190;SDS011;47004;51.366;12.348;2024-02-16T10:15:40;2.53;;;1.50;;
18190;SDS011;47004;51.366;12.348;2024-02-16T10:17:43;2.17;;;1.50;;
18190;SDS011;47004;51.366;12.348;2024-02-16T10:19:44;2.27;;;1.40;;
18190;SDS011;47004;51.366;12.348;2024-02-16T10:22:04;2.47;;;1.50;;
18190;SDS011;47004;51.366;12.348;2024-02-16T10:24:08;2.60;;;1.33;;
18190;SDS011;47004;51.366;12.348;2024-02-16T10:26:11;4.17;;;1.70;;
18190;SDS011;47004;51.366;12.348;2024-02-16T10:28:13;1.80;;;1.33;;
18190;SDS011;47004;51.366;12.348;2024-02-16T10:30:17;2.90;;;1.40;;
18190;SDS011;47004;51.366;12.348;2024-02-16T10:32:18;2.27;;;1.60;;
18190;SDS011;47004;51.366;12.348;2024-02-16T10:34:23;1.80;;;1.30;;
18190;SDS011;47004;51.366;12.348;2024-02-16T10:36:27;2.40;;;1.50;;
18190;SDS011;47004;51.366;12.348;2024-02-16T10:38:29;6.47;;;1.40;;
18190;SDS011;47004;51.366;12.348;2024-02-16T10:40:32;2.33;;;1.50;;
18190;SDS011;47004;51.366;12.348;2024-02-16T10:42:38;2.53;;;1.67;;
18190;SDS011;47004;51.366;12.348;2024-02-16T10:44:41;1.93;;;1.40;;
18190;SDS011;47004;51.366;12.348;2024-02-16T10:46:45;3.20;;;1.60;;
18190;SDS011;47004;51.366;12.348;2024-02-16T10:48:47;2.00;;;1.50;;
18190;SDS011;47004;51.366;12.348;2024-02-16T10:50:51;5.50;;;1.50;;
18190;SDS011;47004;51.366;12.348;2024-02-16T10:52:55;2.67;;;1.40;;
18190;SDS011;47004;51.366;12.348;2024-02-16T10:55:00;4.00;;;1.70;;
18190;SDS011;47004;51.366;12.348;2024-02-16T10:57:07;2.47;;;1.60;;
18190;SDS011;47004;51.366;12.348;2024-02-16T10:59:10;3.70;;;1.60;;
18190;SDS011;47004;51.366;12.348;2024-02-16T11:01:14;3.00;;;1.50;;
18190;SDS011;47004;51.366;12.348;2024-02-16T11:03:16;3.70;;;1.80;;
18190;SDS011;47004;51.366;12.348;2024-02-16T11:05:19;2.07;;;1.47;;
18190;SDS011;47004;51.366;12.348;2024-02-16T11:07:24;1.87;;;1.40;;
18190;SDS011;47004;51.366;12.348;2024-02-16T11:09:26;3.67;;;1.57;;
18190;SDS011;47004;51.366;12.348;2024-02-16T11:11:28;2.00;;;1.50;;
18190;SDS011;47004;51.366;12.348;2024-02-16T11:13:32;2.47;;;1.67;;
18190;SDS011;47004;51.366;12.348;2024-02-16T11:15:34;2.40;;;1.70;;
18190;SDS011;47004;51.366;12.348;2024-02-16T11:17:38;2.73;;;1.70;;
18190;SDS011;47004;51.366;12.348;2024-02-16T11:19:41;3.33;;;1.60;;
18190;SDS011;47004;51.366;12.348;2024-02-16T11:21:54;4.40;;;1.70;;
18190;SDS011;47004;51.366;12.348;2024-02-16T11:24:06;2.57;;;1.70;;
18190;SDS011;47004;51.366;12.348;2024-02-16T11:26:09;3.97;;;1.70;;
18190;SDS011;47004;51.366;12.348;2024-02-16T11:28:12;4.77;;;1.70;;
18190;SDS011;47004;51.366;12.348;2024-02-16T11:30:15;2.77;;;1.53;;
18190;SDS011;47004;51.366;12.348;2024-02-16T11:32:18;2.73;;;1.57;;
18190;SDS011;47004;51.366;12.348;2024-02-16T11:34:23;3.17;;;1.70;;
18190;SDS011;47004;51.366;12.348;2024-02-16T11:36:25;3.40;;;1.80;;
18190;SDS011;47004;51.366;12.348;2024-02-16T11:38:30;1.97;;;1.50;;
18190;SDS011;47004;51.366;12.348;2024-02-16T11:40:34;5.53;;;1.97;;
18190;SDS011;47004;51.366;12.348;2024-02-16T11:42:36;2.90;;;1.70;;
18190;SDS011;47004;51.366;12.348;2024-02-16T11:44:39;3.73;;;1.90;;
18190;SDS011;47004;51.366;12.348;2024-02-16T11:46:52;3.90;;;1.67;;
18190;SDS011;47004;51.366;12.348;2024-02-16T11:49:03;2.50;;;1.50;;
18190;SDS011;47004;51.366;12.348;2024-02-16T11:51:06;2.27;;;1.50;;
18190;SDS011;47004;51.366;12.348;2024-02-16T11:53:08;2.60;;;1.37;;
18190;SDS011;47004;51.366;12.348;2024-02-16T11:55:10;2.60;;;1.50;;
18190;SDS011;47004;51.366;12.348;2024-02-16T11:57:16;3.00;;;1.97;;
18190;SDS011;47004;51.366;12.348;2024-02-16T11:59:18;6.10;;;1.77;;
18190;SDS011;47004;51.366;12.348;2024-02-16T12:01:20;4.47;;;1.50;;
18190;SDS011;47004;51.366;12.348;2024-02-16T12:03:23;2.87;;;1.50;;
18190;SDS011;47004;51.366;12.348;2024-02-16T12:05:27;4.37;;;1.40;;
18190;SDS011;47004;51.366;12.348;2024-02-16T12:07:30;3.37;;;1.57;;